Aeroporto :
LOGIN :

Iscrizione | Disclaimer

   EN    FR    IT 

 










Sommario :    VFR   VFR Marginale   IFR   IFR Intensivo   IFR Molto Intensivo
Visibilità : 
Base nubi : 
>= 8 km
>= 3000ft
5 / 8 km
1000 / 3000 ft
1500m / 5 km
500 / 1000 ft
800 / 1500m
200 / 500 ft
< 800m
< 200 ft
Simboli :   Temporali  Nebbia  Neve Forte  Precipitazioni Forti  Vento > 20 kt
SIGMETs :   Varie  Temporali  Ghiacco  Turbolenza  Onda orograficha  Ceneri Vulcaniche






- Altitudine del aeroporto : 230 ft


ETHB - Buckeburg Army

ULTIMO METAR :
  • 301920Z 00000KT 9999 FEW005 SCT050 03/02 Q1026 BLU+BLU+

METARs OBSOLETI :
  • 301849Z 08002KT 9999 VCSH FEW006 SCT010 BKN040 03/02 Q1025 BLU BLU
  • 301820Z 05002KT 9999 -RA SCT006 SCT010 BKN018 03/02 Q1025 WHT WHT BECMG BLU
  • 301742Z 32002KT 9000 -RASN SCT008 BKN010 BKN016 04/03 Q1025 GRN WHT TEMPO YLO
  • 301735Z 29003KT 9999 -RASN SCT008 SCT013 BKN016 04/03 Q1025 WHT WHT TEMPO YLO

TAF TAF ETHB
Valido dal 30 a 20 ore il 31 a 05 ore UTC


301916Z 3020/3105 03007KT 9999 NSW SCT020 BKN040
TEMPO 3023/3105 05003KT 4000 BR FEW025 SCT070



MetMap, La meteo Aeronautica in un colpo d'occhio ! - Copyright ORBIFLY Dicembre 2007 - Disclaimer

ORBIFLY MET'MAP TEAM :

Programmazione e sviluppo : Alexandra Zaïnal
Concezione : Baudouin d'Aumeries
Aiuto per la programmazione : Marc-Olivier Méhu
Supporto tecnico e logistico : Manuel Goepfert
Aiuto per la traduzione : Arnaldo La Scala

Contatto : metmap@orbifly.com




FONTI E CREDITI :

   NOAA